createdAt,value
2017-01-22T00:00:18.335Z,0
2017-01-22T00:01:18.709Z,0
2017-01-22T00:02:18.676Z,0
2017-01-22T00:03:18.944Z,0
2017-01-22T00:04:18.213Z,0
2017-01-22T00:05:18.589Z,0
2017-01-22T00:06:17.762Z,0
2017-01-22T00:07:18.540Z,0
2017-01-22T00:08:18.109Z,0
2017-01-22T00:09:18.477Z,0
2017-01-22T00:10:18.441Z,0
2017-01-22T00:11:17.625Z,0
2017-01-22T00:12:18.391Z,0
2017-01-22T00:13:18.358Z,0
2017-01-22T00:14:17.525Z,0
2017-01-22T00:15:18.298Z,0
2017-01-22T00:16:17.474Z,0
2017-01-22T00:17:18.259Z,0
2017-01-22T00:18:18.210Z,0
2017-01-22T00:19:18.556Z,0
2017-01-22T00:20:18.173Z,0
2017-01-22T00:21:18.132Z,0
2017-01-22T00:22:18.405Z,0
2017-01-22T00:23:18.077Z,0
2017-01-22T00:24:18.044Z,0
2017-01-22T00:25:17.612Z,0
2017-01-22T00:26:18.006Z,0
2017-01-22T00:27:17.955Z,0
2017-01-22T00:28:17.951Z,0
2017-01-22T00:29:17.895Z,0
2017-01-22T00:30:17.870Z,0
2017-01-22T00:31:17.832Z,0
2017-01-22T00:32:17.813Z,0
2017-01-22T00:33:17.782Z,0
2017-01-22T00:34:17.371Z,0
2017-01-22T00:35:17.732Z,0
2017-01-22T00:36:17.299Z,0
2017-01-22T00:37:17.273Z,0
2017-01-22T00:38:17.464Z,0
2017-01-22T00:39:17.607Z,0
2017-01-22T00:40:17.583Z,0
2017-01-22T00:41:17.543Z,0
2017-01-22T00:42:17.183Z,0
2017-01-22T00:43:17.493Z,0
2017-01-22T00:44:17.466Z,0
2017-01-22T00:45:17.445Z,0
2017-01-22T00:46:17.009Z,0
2017-01-22T00:47:17.383Z,0
2017-01-22T00:48:17.354Z,0
2017-01-22T00:49:17.321Z,0
2017-01-22T00:50:17.338Z,0
2017-01-22T00:51:16.869Z,0
2017-01-22T00:52:16.836Z,0
2017-01-22T00:53:17.201Z,0
2017-01-22T00:54:16.769Z,0
2017-01-22T00:55:16.743Z,0
2017-01-22T00:56:17.144Z,0
2017-01-22T00:57:17.085Z,0
2017-01-22T00:58:16.263Z,0
2017-01-22T00:59:16.628Z,0
2017-01-22T01:00:16.654Z,0
2017-01-22T01:01:16.976Z,0
2017-01-22T01:02:16.539Z,0
2017-01-22T01:03:16.915Z,0
2017-01-22T01:04:16.482Z,0
2017-01-22T01:05:16.463Z,0
2017-01-22T01:06:16.451Z,0
2017-01-22T01:07:16.397Z,0
2017-01-22T01:08:16.782Z,0
2017-01-22T01:09:16.338Z,0
2017-01-22T01:10:16.710Z,0
2017-01-22T01:11:16.696Z,0
2017-01-22T01:12:16.249Z,0
2017-01-22T01:13:15.874Z,0
2017-01-22T01:14:16.196Z,0
2017-01-22T01:15:16.567Z,0
2017-01-22T01:16:16.142Z,0
2017-01-22T01:17:16.107Z,0
2017-01-22T01:18:16.484Z,0
2017-01-22T01:19:16.446Z,0
2017-01-22T01:20:16.019Z,0
2017-01-22T01:21:16.047Z,0
2017-01-22T01:22:16.357Z,0
2017-01-22T01:23:15.946Z,0
2017-01-22T01:24:16.302Z,0
2017-01-22T01:25:16.272Z,0
2017-01-22T01:26:15.840Z,0
2017-01-22T01:27:15.815Z,0
2017-01-22T01:28:15.784Z,0
2017-01-22T01:29:15.751Z,0
2017-01-22T01:30:15.734Z,0
2017-01-22T01:31:16.099Z,0
2017-01-22T01:32:15.280Z,0
2017-01-22T01:33:15.257Z,0
2017-01-22T01:34:15.218Z,0
2017-01-22T01:35:15.598Z,0
2017-01-22T01:36:15.554Z,0
2017-01-22T01:37:15.535Z,0
2017-01-22T01:38:15.544Z,0
2017-01-22T01:39:15.881Z,0
2017-01-22T01:40:15.833Z,0
2017-01-22T01:41:15.804Z,0
2017-01-22T01:42:14.980Z,0
2017-01-22T01:43:15.362Z,0
2017-01-22T01:44:15.326Z,0
2017-01-22T01:45:15.289Z,0
2017-01-22T01:46:14.866Z,0
2017-01-22T01:47:15.631Z,0
2017-01-22T01:48:15.609Z,0
2017-01-22T01:49:15.574Z,0
2017-01-22T01:50:15.146Z,0
2017-01-22T01:51:15.131Z,0
2017-01-22T01:52:15.080Z,0
2017-01-22T01:53:15.057Z,0
2017-01-22T01:54:15.040Z,0
2017-01-22T01:55:15.003Z,0
2017-01-22T01:56:15.368Z,0
2017-01-22T01:57:15.331Z,0
2017-01-22T01:58:15.306Z,0
2017-01-22T01:59:14.882Z,0
2017-01-22T02:00:15.259Z,0
2017-01-22T02:01:15.218Z,0
2017-01-22T02:02:15.192Z,0
2017-01-22T02:03:14.811Z,0
2017-01-22T02:04:15.145Z,0
2017-01-22T02:05:14.765Z,0
2017-01-22T02:06:14.720Z,0
2017-01-22T02:07:15.059Z,0
2017-01-22T02:08:15.013Z,0
2017-01-22T02:09:14.986Z,0
2017-01-22T02:10:14.554Z,0
2017-01-22T02:11:14.134Z,0
2017-01-22T02:12:14.893Z,0
2017-01-22T02:13:14.879Z,0
2017-01-22T02:14:14.848Z,0
2017-01-22T02:15:14.483Z,0
2017-01-22T02:16:14.887Z,0
2017-01-22T02:17:14.756Z,0
2017-01-22T02:18:14.724Z,0
2017-01-22T02:19:13.895Z,0
2017-01-22T02:20:14.688Z,0
2017-01-22T02:21:14.639Z,0
2017-01-22T02:22:14.206Z,0
2017-01-22T02:23:14.585Z,0
2017-01-22T02:24:14.458Z,0
2017-01-22T02:25:13.720Z,0
2017-01-22T02:26:14.100Z,0
2017-01-22T02:27:14.512Z,0
2017-01-22T02:28:14.025Z,0
2017-01-22T02:29:13.999Z,0
2017-01-22T02:30:13.974Z,0
2017-01-22T02:31:14.345Z,0
2017-01-22T02:32:14.389Z,0
2017-01-22T02:33:13.883Z,0
2017-01-22T02:34:14.259Z,0
2017-01-22T02:35:14.229Z,0
2017-01-22T02:36:13.843Z,0
2017-01-22T02:37:13.759Z,0
2017-01-22T02:38:13.728Z,0
2017-01-22T02:39:13.306Z,0
2017-01-22T02:40:13.275Z,0
2017-01-22T02:41:14.048Z,0
2017-01-22T02:42:14.023Z,0
2017-01-22T02:43:13.589Z,0
2017-01-22T02:44:13.957Z,0
2017-01-22T02:45:13.527Z,0
2017-01-22T02:46:13.914Z,0
2017-01-22T02:47:13.871Z,0
2017-01-22T02:48:13.444Z,0
2017-01-22T02:49:13.824Z,0
2017-01-22T02:50:13.390Z,0
2017-01-22T02:51:13.745Z,0
2017-01-22T02:52:13.719Z,0
2017-01-22T02:53:13.298Z,0
2017-01-22T02:54:13.314Z,0
2017-01-22T02:55:13.625Z,0
2017-01-22T02:56:13.603Z,0
2017-01-22T02:57:13.174Z,0
2017-01-22T02:58:13.545Z,0
2017-01-22T02:59:13.514Z,0
2017-01-22T03:00:13.090Z,0
2017-01-22T03:01:13.126Z,0
2017-01-22T03:02:13.436Z,0
2017-01-22T03:03:13.401Z,0
2017-01-22T03:04:13.392Z,0
2017-01-22T03:05:13.336Z,0
2017-01-22T03:06:13.309Z,0
2017-01-22T03:07:13.274Z,0
2017-01-22T03:08:12.853Z,0
2017-01-22T03:09:13.221Z,0
2017-01-22T03:10:13.189Z,0
2017-01-22T03:11:12.761Z,0
2017-01-22T03:12:13.132Z,0
2017-01-22T03:13:13.128Z,0
2017-01-22T03:14:13.085Z,0
2017-01-22T03:15:12.697Z,0
2017-01-22T03:16:13.023Z,0
2017-01-22T03:17:12.186Z,0
2017-01-22T03:18:12.950Z,0
2017-01-22T03:19:12.531Z,0
2017-01-22T03:20:12.490Z,0
2017-01-22T03:21:12.861Z,0
2017-01-22T03:22:12.843Z,0
2017-01-22T03:23:12.818Z,0
2017-01-22T03:24:12.776Z,0
2017-01-22T03:25:12.741Z,0
2017-01-22T03:26:12.727Z,0
2017-01-22T03:27:12.692Z,0
2017-01-22T03:28:12.311Z,0
2017-01-22T03:29:12.258Z,0
2017-01-22T03:30:12.591Z,0
2017-01-22T03:31:12.565Z,0
2017-01-22T03:32:12.138Z,0
2017-01-22T03:33:12.564Z,0
2017-01-22T03:34:12.476Z,0
2017-01-22T03:35:12.457Z,0
2017-01-22T03:36:12.427Z,0
2017-01-22T03:37:12.384Z,0
2017-01-22T03:38:12.354Z,0
2017-01-22T03:39:12.319Z,0
2017-01-22T03:40:11.529Z,0
2017-01-22T03:41:12.267Z,0
2017-01-22T03:42:12.235Z,0
2017-01-22T03:43:11.813Z,0
2017-01-22T03:44:11.787Z,0
2017-01-22T03:45:12.142Z,0
2017-01-22T03:46:11.717Z,0
2017-01-22T03:47:12.094Z,0
2017-01-22T03:48:12.067Z,0
2017-01-22T03:49:12.038Z,0
2017-01-22T03:50:11.998Z,0
2017-01-22T03:51:11.573Z,0
2017-01-22T03:52:11.949Z,0
2017-01-22T03:53:11.510Z,0
2017-01-22T03:54:11.884Z,0
2017-01-22T03:55:11.852Z,0
2017-01-22T03:56:11.473Z,0
2017-01-22T03:57:11.800Z,0
2017-01-22T03:58:11.367Z,0
2017-01-22T03:59:11.734Z,0
2017-01-22T04:00:10.901Z,0
2017-01-22T04:01:11.683Z,0
2017-01-22T04:02:11.638Z,0
2017-01-22T04:03:11.618Z,0
2017-01-22T04:04:11.593Z,0
2017-01-22T04:05:11.154Z,0
2017-01-22T04:06:11.525Z,0
2017-01-22T04:07:11.098Z,0
2017-01-22T04:08:11.465Z,0
2017-01-22T04:09:11.035Z,0
2017-01-22T04:10:11.450Z,0
2017-01-22T04:11:10.978Z,0
2017-01-22T04:12:11.343Z,0
2017-01-22T04:13:11.309Z,0
2017-01-22T04:14:10.879Z,0
2017-01-22T04:15:11.252Z,0
2017-01-22T04:16:10.429Z,0
2017-01-22T04:17:11.190Z,0
2017-01-22T04:18:11.166Z,0
2017-01-22T04:19:11.130Z,0
2017-01-22T04:20:11.106Z,0
2017-01-22T04:21:10.677Z,0
2017-01-22T04:22:11.046Z,0
2017-01-22T04:23:10.214Z,0
2017-01-22T04:24:10.593Z,0
2017-01-22T04:25:10.956Z,0
2017-01-22T04:26:10.923Z,0
2017-01-22T04:27:10.519Z,0
2017-01-22T04:28:10.865Z,0
2017-01-22T04:29:10.043Z,0
2017-01-22T04:30:10.416Z,0
2017-01-22T04:31:11.027Z,0
2017-01-22T04:32:09.976Z,0
2017-01-22T04:33:10.346Z,0
2017-01-22T04:34:10.730Z,0
2017-01-22T04:35:10.650Z,0
2017-01-22T04:36:10.623Z,0
2017-01-22T04:37:10.596Z,0
2017-01-22T04:38:10.161Z,0
2017-01-22T04:39:10.529Z,0
2017-01-22T04:40:10.108Z,0
2017-01-22T04:41:10.471Z,0
2017-01-22T04:42:10.488Z,0
2017-01-22T04:43:10.016Z,0
2017-01-22T04:44:09.984Z,0
2017-01-22T04:45:09.954Z,0
2017-01-22T04:46:09.529Z,0
2017-01-22T04:47:10.296Z,0
2017-01-22T04:48:09.865Z,0
2017-01-22T04:49:09.879Z,0
2017-01-22T04:50:10.193Z,0
2017-01-22T04:51:09.769Z,0
2017-01-22T04:52:10.138Z,0
2017-01-22T04:53:10.110Z,0
2017-01-22T04:54:10.109Z,0
2017-01-22T04:55:09.245Z,0
2017-01-22T04:56:09.615Z,0
2017-01-22T04:57:09.992Z,0
2017-01-22T04:58:09.162Z,0
2017-01-22T04:59:09.928Z,0
2017-01-22T05:00:09.892Z,0
2017-01-22T05:01:09.870Z,0
2017-01-22T05:02:09.849Z,0
2017-01-22T05:03:09.411Z,0
2017-01-22T05:04:08.975Z,0
2017-01-22T05:05:09.746Z,0
2017-01-22T05:06:09.349Z,0
2017-01-22T05:07:09.689Z,0
2017-01-22T05:08:09.256Z,0
2017-01-22T05:09:09.228Z,0
2017-01-22T05:10:08.799Z,0
2017-01-22T05:11:09.560Z,0
2017-01-22T05:12:09.137Z,0
2017-01-22T05:13:08.704Z,0
2017-01-22T05:14:09.473Z,0
2017-01-22T05:15:09.048Z,0
2017-01-22T05:16:09.409Z,0
2017-01-22T05:17:08.591Z,0
2017-01-22T05:18:08.952Z,0
2017-01-22T05:19:09.327Z,0
2017-01-22T05:20:09.288Z,0
2017-01-22T05:21:08.909Z,0
2017-01-22T05:22:09.237Z,0
2017-01-22T05:23:09.210Z,0
2017-01-22T05:24:08.772Z,0
2017-01-22T05:25:08.380Z,0
2017-01-22T05:26:08.705Z,0
2017-01-22T05:27:09.082Z,0
2017-01-22T05:28:08.652Z,0
2017-01-22T05:29:08.611Z,0
2017-01-22T05:30:07.792Z,0
2017-01-22T05:31:08.955Z,0
2017-01-22T05:32:08.927Z,0
2017-01-22T05:33:08.904Z,0
2017-01-22T05:34:09.213Z,0
2017-01-22T05:35:08.840Z,0
2017-01-22T05:36:08.406Z,0
2017-01-22T05:37:08.779Z,0
2017-01-22T05:38:08.353Z,0
2017-01-22T05:39:07.922Z,0
2017-01-22T05:40:08.682Z,0
2017-01-22T05:41:08.650Z,0
2017-01-22T05:42:08.227Z,0
2017-01-22T05:43:08.592Z,0
2017-01-22T05:44:08.160Z,0
2017-01-22T05:45:07.742Z,0
2017-01-22T05:46:08.107Z,0
2017-01-22T05:47:08.476Z,0
2017-01-22T05:48:08.047Z,0
2017-01-22T05:49:08.418Z,0
2017-01-22T05:50:07.587Z,0
2017-01-22T05:51:08.358Z,0
2017-01-22T05:52:08.332Z,0
2017-01-22T05:53:07.891Z,0
2017-01-22T05:54:07.875Z,0
2017-01-22T05:55:08.233Z,0
2017-01-22T05:56:07.405Z,0
2017-01-22T05:57:07.767Z,0
2017-01-22T05:58:08.189Z,0
2017-01-22T05:59:07.716Z,0
2017-01-22T06:00:07.687Z,0
2017-01-22T06:01:07.547Z,0
2017-01-22T06:02:07.674Z,0
2017-01-22T06:03:07.999Z,0
2017-01-22T06:04:08.008Z,0
2017-01-22T06:05:07.925Z,0
2017-01-22T06:06:07.925Z,0
2017-01-22T06:07:07.874Z,0
2017-01-22T06:08:07.868Z,0
2017-01-22T06:09:07.848Z,0
2017-01-22T06:10:07.776Z,0
2017-01-22T06:11:07.358Z,0
2017-01-22T06:12:07.706Z,0
2017-01-22T06:13:07.288Z,0
2017-01-22T06:14:07.658Z,0
2017-01-22T06:15:07.224Z,0
2017-01-22T06:16:07.597Z,0
2017-01-22T06:17:07.165Z,0
2017-01-22T06:18:07.532Z,0
2017-01-22T06:19:07.499Z,0
2017-01-22T06:20:07.467Z,0
2017-01-22T06:21:07.461Z,0
2017-01-22T06:22:07.410Z,0
2017-01-22T06:23:07.387Z,0
2017-01-22T06:24:06.991Z,0
2017-01-22T06:25:07.376Z,0
2017-01-22T06:26:07.287Z,0
2017-01-22T06:27:07.260Z,0
2017-01-22T06:28:07.229Z,0
2017-01-22T06:29:07.198Z,0
2017-01-22T06:30:07.166Z,0
2017-01-22T06:31:06.744Z,0
2017-01-22T06:32:07.107Z,0
2017-01-22T06:33:07.156Z,0
2017-01-22T06:34:06.655Z,0
2017-01-22T06:35:06.624Z,0
2017-01-22T06:36:06.587Z,0
2017-01-22T06:37:06.560Z,0
2017-01-22T06:38:06.129Z,0
2017-01-22T06:39:06.489Z,0
2017-01-22T06:40:06.468Z,0
2017-01-22T06:41:06.840Z,4
2017-01-22T06:42:06.810Z,0
2017-01-22T06:43:06.450Z,0
2017-01-22T06:44:05.955Z,4
2017-01-22T06:45:06.316Z,4
2017-01-22T06:46:06.682Z,4
2017-01-22T06:47:06.659Z,4
2017-01-22T06:48:06.637Z,4
2017-01-22T06:49:06.203Z,4
2017-01-22T06:50:06.212Z,4
2017-01-22T06:51:06.141Z,4
2017-01-22T06:52:06.131Z,8
2017-01-22T06:53:06.076Z,8
2017-01-22T06:54:06.047Z,8
2017-01-22T06:55:06.415Z,12
2017-01-22T06:56:06.380Z,12
2017-01-22T06:57:05.954Z,16
2017-01-22T06:58:05.919Z,20
2017-01-22T06:59:06.344Z,20
2017-01-22T07:00:06.261Z,24
2017-01-22T07:01:05.841Z,28
2017-01-22T07:02:06.207Z,36
2017-01-22T07:03:05.772Z,40
2017-01-22T07:04:05.789Z,44
2017-01-22T07:05:06.121Z,52
2017-01-22T07:06:05.734Z,60
2017-01-22T07:07:06.052Z,68
2017-01-22T07:08:06.018Z,72
2017-01-22T07:09:05.187Z,84
2017-01-22T07:10:05.958Z,96
2017-01-22T07:11:05.526Z,108
2017-01-22T07:12:05.093Z,120
2017-01-22T07:13:05.866Z,132
2017-01-22T07:14:05.431Z,148
2017-01-22T07:15:05.827Z,160
2017-01-22T07:16:05.772Z,180
2017-01-22T07:17:05.647Z,196
2017-01-22T07:18:05.362Z,212
2017-01-22T07:19:05.319Z,232
2017-01-22T07:20:05.275Z,256
2017-01-22T07:21:05.218Z,276
2017-01-22T07:22:05.638Z,300
2017-01-22T07:23:05.558Z,320
2017-01-22T07:24:05.131Z,344
2017-01-22T07:25:05.507Z,372
2017-01-22T07:26:05.089Z,396
2017-01-22T07:27:05.441Z,428
2017-01-22T07:28:05.410Z,456
2017-01-22T07:29:04.982Z,484
2017-01-22T07:30:05.367Z,516
2017-01-22T07:31:05.312Z,548
2017-01-22T07:32:04.987Z,580
2017-01-22T07:33:05.277Z,616
2017-01-22T07:34:05.223Z,652
2017-01-22T07:35:05.207Z,688
2017-01-22T07:36:04.767Z,732
2017-01-22T07:37:04.730Z,768
2017-01-22T07:38:04.310Z,820
2017-01-22T07:39:05.081Z,880
2017-01-22T07:40:04.251Z,944
2017-01-22T07:41:04.620Z,1024
2017-01-22T07:42:04.978Z,1104
2017-01-22T07:43:04.953Z,1176
2017-01-22T07:44:04.918Z,1244
2017-01-22T07:45:04.500Z,1320
2017-01-22T07:46:04.907Z,1384
2017-01-22T07:47:04.832Z,1448
2017-01-22T07:48:04.407Z,1460
2017-01-22T07:49:04.770Z,1476
2017-01-22T07:50:04.742Z,1564
2017-01-22T07:51:03.914Z,1640
2017-01-22T07:52:04.682Z,1668
2017-01-22T07:53:04.271Z,1644
2017-01-22T07:54:04.224Z,1652
2017-01-22T07:55:03.812Z,1676
2017-01-22T07:56:03.369Z,1684
2017-01-22T07:57:04.535Z,1700
2017-01-22T07:58:04.507Z,1732
2017-01-22T07:59:04.074Z,1796
2017-01-22T08:00:04.049Z,1912
2017-01-22T08:01:04.564Z,2048
2017-01-22T08:02:03.990Z,2208
2017-01-22T08:03:04.363Z,2372
2017-01-22T08:04:04.365Z,2548
2017-01-22T08:05:04.296Z,2736
2017-01-22T08:06:04.272Z,2868
2017-01-22T08:07:04.250Z,2964
2017-01-22T08:08:04.224Z,3044
2017-01-22T08:09:04.194Z,3120
2017-01-22T08:10:03.368Z,3192
2017-01-22T08:11:03.746Z,3272
2017-01-22T08:12:03.702Z,3336
2017-01-22T08:13:03.288Z,3404
2017-01-22T08:14:03.699Z,3468
2017-01-22T08:15:04.023Z,3532
2017-01-22T08:16:03.993Z,3588
2017-01-22T08:17:03.569Z,3656
2017-01-22T08:18:03.553Z,3708
2017-01-22T08:19:03.128Z,3756
2017-01-22T08:20:03.887Z,3796
2017-01-22T08:21:03.057Z,3840
2017-01-22T08:22:03.915Z,3884
2017-01-22T08:23:03.022Z,3952
2017-01-22T08:24:03.378Z,4008
2017-01-22T08:25:03.769Z,4040
2017-01-22T08:26:03.339Z,4128
2017-01-22T08:27:03.707Z,4232
2017-01-22T08:28:03.291Z,4252
2017-01-22T08:29:03.718Z,4204
2017-01-22T08:30:03.238Z,4184
2017-01-22T08:31:03.263Z,4180
2017-01-22T08:32:03.183Z,4168
2017-01-22T08:33:03.158Z,4160
2017-01-22T08:34:03.133Z,4164
2017-01-22T08:35:03.112Z,4200
2017-01-22T08:36:03.488Z,4232
2017-01-22T08:37:03.477Z,4240
2017-01-22T08:38:03.058Z,4268
2017-01-22T08:39:03.423Z,4296
2017-01-22T08:40:03.408Z,4344
2017-01-22T08:41:03.373Z,4364
2017-01-22T08:42:03.355Z,4372
2017-01-22T08:43:02.923Z,4440
2017-01-22T08:44:03.309Z,4532
2017-01-22T08:45:03.294Z,4568
2017-01-22T08:46:03.261Z,4620
2017-01-22T08:47:02.488Z,4684
2017-01-22T08:48:03.252Z,4764
2017-01-22T08:49:02.839Z,4852
2017-01-22T08:50:03.184Z,5004
2017-01-22T08:51:03.148Z,5144
2017-01-22T08:52:03.127Z,5184
2017-01-22T08:53:03.113Z,5176
2017-01-22T08:54:03.087Z,5224
2017-01-22T08:55:02.660Z,5312
2017-01-22T08:56:03.041Z,5372
2017-01-22T08:57:03.020Z,5340
2017-01-22T08:58:02.993Z,5340
2017-01-22T08:59:02.574Z,5484
2017-01-22T09:00:02.561Z,5616
2017-01-22T09:01:02.545Z,5716
2017-01-22T09:02:02.922Z,5564
2017-01-22T09:03:02.101Z,4704
2017-01-22T09:04:02.068Z,4360
2017-01-22T09:05:02.470Z,4464
2017-01-22T09:06:02.831Z,4116
2017-01-22T09:07:02.810Z,4124
2017-01-22T09:08:02.389Z,4128
2017-01-22T09:09:02.768Z,4136
2017-01-22T09:10:02.343Z,4140
2017-01-22T09:11:01.918Z,4148
2017-01-22T09:12:02.340Z,4148
2017-01-22T09:13:02.274Z,4152
2017-01-22T09:14:02.254Z,4152
2017-01-22T09:15:02.646Z,4156
2017-01-22T09:16:02.609Z,4148
2017-01-22T09:17:02.185Z,4128
2017-01-22T09:18:02.570Z,4100
2017-01-22T09:19:02.550Z,4076
2017-01-22T09:20:02.573Z,4052
2017-01-22T09:21:02.496Z,4028
2017-01-22T09:22:02.063Z,4016
2017-01-22T09:23:02.056Z,4004
2017-01-22T09:24:02.030Z,3996
2017-01-22T09:25:02.408Z,4008
2017-01-22T09:26:02.016Z,4016
2017-01-22T09:27:02.355Z,4004
2017-01-22T09:28:02.324Z,3984
2017-01-22T09:29:01.910Z,3980
2017-01-22T09:30:02.277Z,3972
2017-01-22T09:31:01.880Z,3948
2017-01-22T09:32:01.835Z,3940
2017-01-22T09:33:01.804Z,3940
2017-01-22T09:34:02.219Z,3916
2017-01-22T09:35:02.454Z,3912
2017-01-22T09:36:02.140Z,3920
2017-01-22T09:37:01.380Z,3928
2017-01-22T09:38:02.126Z,3936
2017-01-22T09:39:02.055Z,3944
2017-01-22T09:40:01.625Z,3948
2017-01-22T09:41:02.000Z,3952
2017-01-22T09:42:02.003Z,3948
2017-01-22T09:43:01.543Z,3952
2017-01-22T09:44:01.123Z,3944
2017-01-22T09:45:01.497Z,3940
2017-01-22T09:46:01.075Z,3932
2017-01-22T09:47:01.455Z,3924
2017-01-22T09:48:01.816Z,3928
2017-01-22T09:49:01.847Z,3928
2017-01-22T09:50:01.817Z,3932
2017-01-22T09:51:01.733Z,3936
2017-01-22T09:52:01.759Z,3924
2017-01-22T09:53:01.690Z,3920
2017-01-22T09:54:01.665Z,3912
2017-01-22T09:55:01.641Z,3904
2017-01-22T09:56:01.211Z,3900
2017-01-22T09:57:01.605Z,3896
2017-01-22T09:58:01.563Z,3892
2017-01-22T09:59:00.725Z,3900
2017-01-22T10:00:01.506Z,3900
2017-01-22T10:01:01.137Z,3908
2017-01-22T10:02:01.458Z,3900
2017-01-22T10:03:01.030Z,3892
2017-01-22T10:04:01.004Z,3888
2017-01-22T10:05:01.017Z,3888
2017-01-22T10:06:00.554Z,3880
2017-01-22T10:07:01.327Z,3880
2017-01-22T10:08:00.899Z,3880
2017-01-22T10:09:00.868Z,3884
2017-01-22T10:10:01.242Z,3888
2017-01-22T10:11:01.215Z,3892
2017-01-22T10:12:01.192Z,3904
2017-01-22T10:13:00.754Z,3904
2017-01-22T10:14:01.126Z,3904
2017-01-22T10:15:01.102Z,3904
2017-01-22T10:16:01.072Z,3900
2017-01-22T10:17:00.656Z,3912
2017-01-22T10:18:01.022Z,3924
2017-01-22T10:19:01.005Z,3924
2017-01-22T10:20:00.171Z,3924
2017-01-22T10:21:00.539Z,3924
2017-01-22T10:22:00.918Z,3928
2017-01-22T10:22:59.694Z,3932
2017-01-22T10:24:00.467Z,3936
2017-01-22T10:25:00.838Z,3944
2017-01-22T10:26:00.411Z,3956
2017-01-22T10:27:00.380Z,3944
2017-01-22T10:28:00.761Z,3952
2017-01-22T10:29:00.333Z,3972
2017-01-22T10:30:00.296Z,3964
2017-01-22T10:31:00.676Z,3972
2017-01-22T10:32:00.672Z,3976
2017-01-22T10:33:00.423Z,3960
2017-01-22T10:34:00.798Z,3960
2017-01-22T10:35:00.246Z,3972
2017-01-22T10:36:00.847Z,3972
2017-01-22T10:37:00.519Z,3972
2017-01-22T10:38:00.088Z,3980
2017-01-22T10:39:00.057Z,3976
2017-01-22T10:39:59.630Z,3984
2017-01-22T10:41:00.028Z,3980
2017-01-22T10:41:59.978Z,3980
2017-01-22T10:43:00.367Z,3976
2017-01-22T10:44:00.429Z,3976
2017-01-22T10:44:59.901Z,3988
2017-01-22T10:46:00.275Z,3996
2017-01-22T10:47:00.237Z,4004
2017-01-22T10:48:00.245Z,4008
2017-01-22T10:49:00.196Z,4008
2017-01-22T10:49:59.777Z,4008
2017-01-22T10:50:59.680Z,4008
2017-01-22T10:52:00.124Z,4016
2017-01-22T10:53:00.086Z,4016
2017-01-22T10:53:59.271Z,4020
2017-01-22T10:54:59.632Z,4024
2017-01-22T10:56:00.006Z,4040
2017-01-22T10:56:59.977Z,4044
2017-01-22T10:57:59.961Z,4048
2017-01-22T10:58:59.925Z,4044
2017-01-22T10:59:59.928Z,4040
2017-01-22T11:00:59.872Z,4028
2017-01-22T11:01:59.847Z,4024
2017-01-22T11:02:59.824Z,4036
2017-01-22T11:03:59.790Z,4040
2017-01-22T11:04:59.363Z,4028
2017-01-22T11:05:59.734Z,4032
2017-01-22T11:06:59.707Z,4020
2017-01-22T11:07:59.686Z,4016
2017-01-22T11:08:59.561Z,4004
2017-01-22T11:09:59.236Z,3996
2017-01-22T11:10:59.809Z,3996
2017-01-22T11:11:59.582Z,3988
2017-01-22T11:12:59.158Z,3972
2017-01-22T11:13:59.135Z,3980
2017-01-22T11:14:58.705Z,3980
2017-01-22T11:15:59.124Z,3972
2017-01-22T11:16:59.483Z,3976
2017-01-22T11:17:59.474Z,3968
2017-01-22T11:18:58.204Z,3952
2017-01-22T11:19:59.372Z,3948
2017-01-22T11:20:58.937Z,3948
2017-01-22T11:21:59.320Z,3944
2017-01-22T11:22:59.282Z,3936
2017-01-22T11:23:59.277Z,3924
2017-01-22T11:24:58.836Z,3932
2017-01-22T11:25:59.205Z,3944
2017-01-22T11:26:58.385Z,3928
2017-01-22T11:27:59.163Z,3924
2017-01-22T11:28:59.137Z,3912
2017-01-22T11:29:58.705Z,3908
2017-01-22T11:30:59.134Z,3876
2017-01-22T11:31:58.654Z,3820
2017-01-22T11:32:59.033Z,3800
2017-01-22T11:33:59.012Z,3784
2017-01-22T11:34:58.583Z,3764
2017-01-22T11:35:58.958Z,3740
2017-01-22T11:37:58.912Z,3700
2017-01-22T11:38:58.466Z,3692
2017-01-22T11:39:58.891Z,3684
2017-01-22T11:40:58.825Z,3684
2017-01-22T11:41:58.392Z,3692
2017-01-22T11:42:58.361Z,3684
2017-01-22T11:43:58.746Z,3676
2017-01-22T11:44:58.714Z,3672
2017-01-22T11:45:58.686Z,3676
2017-01-22T11:46:58.668Z,3680
2017-01-22T11:47:58.631Z,3676
2017-01-22T11:48:58.639Z,3660
2017-01-22T11:49:58.582Z,3636
2017-01-22T11:50:57.756Z,3612
2017-01-22T11:51:58.528Z,3596
2017-01-22T11:52:58.101Z,3592
2017-01-22T11:53:58.078Z,3580
2017-01-22T11:54:58.448Z,3564
2017-01-22T11:55:58.032Z,3568
2017-01-22T11:56:58.393Z,3556
2017-01-22T11:57:58.376Z,3556
2017-01-22T11:58:58.350Z,3576
2017-01-22T11:59:57.916Z,3568
2017-01-22T12:00:57.899Z,3556
2017-01-22T12:01:57.877Z,3556
2017-01-22T12:02:58.239Z,3548
2017-01-22T12:03:57.822Z,3544
2017-01-22T12:04:57.790Z,3540
2017-01-22T12:05:57.762Z,3528
2017-01-22T12:06:58.141Z,3512
2017-01-22T12:07:57.709Z,3508
2017-01-22T12:08:58.087Z,3500
2017-01-22T12:09:57.717Z,3496
2017-01-22T12:10:57.639Z,3472
2017-01-22T12:11:58.005Z,3460
2017-01-22T12:12:57.581Z,3460
2017-01-22T12:13:57.986Z,3464
2017-01-22T12:14:58.232Z,3464
2017-01-22T12:15:57.560Z,3448
2017-01-22T12:16:57.496Z,3444
2017-01-22T12:17:57.456Z,3448
2017-01-22T12:18:57.850Z,3440
2017-01-22T12:19:57.005Z,3440
2017-01-22T12:20:57.778Z,3440
2017-01-22T12:21:57.753Z,3428
2017-01-22T12:22:57.325Z,3412
2017-01-22T12:23:57.310Z,3408
2017-01-22T12:24:57.670Z,3400
2017-01-22T12:25:56.846Z,3384
2017-01-22T12:26:57.640Z,3368
2017-01-22T12:27:57.598Z,3364
2017-01-22T12:28:57.481Z,3360
2017-01-22T12:29:57.151Z,3348
2017-01-22T12:30:57.137Z,3332
2017-01-22T12:31:56.739Z,3316
2017-01-22T12:32:57.483Z,3304
2017-01-22T12:33:57.439Z,3296
2017-01-22T12:34:57.024Z,3296
2017-01-22T12:35:57.442Z,3292
2017-01-22T12:36:57.461Z,3292
2017-01-22T12:37:56.936Z,3284
2017-01-22T12:38:56.165Z,3272
2017-01-22T12:39:56.892Z,3256
2017-01-22T12:40:57.263Z,3244
2017-01-22T12:41:57.260Z,3236
2017-01-22T12:42:57.212Z,3236
2017-01-22T12:43:57.238Z,3224
2017-01-22T12:44:56.760Z,3212
2017-01-22T12:45:57.023Z,3208
2017-01-22T12:46:57.103Z,3200
2017-01-22T12:47:57.125Z,3196
2017-01-22T12:48:56.250Z,3192
2017-01-22T12:49:57.032Z,3184
2017-01-22T12:50:57.000Z,3188
2017-01-22T12:51:56.580Z,3184
2017-01-22T12:52:56.586Z,3188
2017-01-22T12:53:56.970Z,3196
2017-01-22T12:54:56.564Z,3192
2017-01-22T12:55:56.880Z,3184
2017-01-22T12:56:56.068Z,3176
2017-01-22T12:57:56.812Z,3168
2017-01-22T12:58:56.455Z,3156
2017-01-22T12:59:56.769Z,3152
2017-01-22T13:00:55.961Z,3140
2017-01-22T13:01:56.719Z,3132
2017-01-22T13:02:56.283Z,3120
2017-01-22T13:03:56.267Z,3116
2017-01-22T13:04:56.697Z,3112
2017-01-22T13:05:56.621Z,3100
2017-01-22T13:06:56.184Z,3088
2017-01-22T13:07:55.762Z,3080
2017-01-22T13:08:56.577Z,3072
2017-01-22T13:09:56.511Z,3068
2017-01-22T13:10:56.481Z,3064
2017-01-22T13:11:56.451Z,3064
2017-01-22T13:12:56.515Z,3064
2017-01-22T13:13:56.446Z,3056
2017-01-22T13:14:56.678Z,3044
2017-01-22T13:15:55.987Z,3040
2017-01-22T13:16:55.527Z,3032
2017-01-22T13:17:56.544Z,3028
2017-01-22T13:18:55.874Z,3020
2017-01-22T13:19:56.246Z,3020
2017-01-22T13:20:55.819Z,3012
2017-01-22T13:21:55.798Z,3004
2017-01-22T13:22:56.230Z,2996
2017-01-22T13:23:55.789Z,2988
2017-01-22T13:24:56.117Z,2980
2017-01-22T13:25:55.337Z,2972
2017-01-22T13:26:56.056Z,2960
2017-01-22T13:27:56.066Z,2956
2017-01-22T13:28:55.603Z,2948
2017-01-22T13:29:55.592Z,2940
2017-01-22T13:30:55.952Z,2932
2017-01-22T13:31:55.928Z,2924
2017-01-22T13:32:55.927Z,2916
2017-01-22T13:33:55.516Z,2908
2017-01-22T13:34:56.352Z,2904
2017-01-22T13:35:55.453Z,2900
2017-01-22T13:36:55.409Z,2892
2017-01-22T13:37:55.675Z,2888
2017-01-22T13:38:55.349Z,2880
2017-01-22T13:39:55.335Z,2868
2017-01-22T13:40:55.740Z,2860
2017-01-22T13:41:55.318Z,2852
2017-01-22T13:42:55.640Z,2844
2017-01-22T13:43:55.228Z,2832
2017-01-22T13:44:55.194Z,2820
2017-01-22T13:45:55.623Z,2812
2017-01-22T13:46:55.545Z,2800
2017-01-22T13:47:55.119Z,2788
2017-01-22T13:48:55.093Z,2772
2017-01-22T13:49:55.076Z,2764
2017-01-22T13:50:55.483Z,2748
2017-01-22T13:51:55.066Z,2740
2017-01-22T13:52:55.008Z,2728
2017-01-22T13:53:55.374Z,2716
2017-01-22T13:54:55.353Z,2700
2017-01-22T13:55:55.328Z,2688
2017-01-22T13:56:54.916Z,2676
2017-01-22T13:57:55.287Z,2664
2017-01-22T13:58:54.448Z,2652
2017-01-22T13:59:55.219Z,2640
2017-01-22T14:00:54.387Z,2628
2017-01-22T14:01:54.750Z,2620
2017-01-22T14:02:54.791Z,2608